sensor_id;sensor_type;location;lat;lon;timestamp;P1;durP1;ratioP1;P2;durP2;ratioP2
75787;SDS011;64406;50.024;14.492;2022-11-04T00:01:30;25.95;;;13.38;;
75787;SDS011;64406;50.024;14.492;2022-11-04T00:03:56;26.42;;;13.85;;
75787;SDS011;64406;50.024;14.492;2022-11-04T00:06:21;19.10;;;12.23;;
75787;SDS011;64406;50.024;14.492;2022-11-04T00:08:51;25.33;;;13.98;;
75787;SDS011;64406;50.024;14.492;2022-11-04T00:11:18;22.40;;;13.05;;
75787;SDS011;64406;50.024;14.492;2022-11-04T00:14:03;26.10;;;13.60;;
75787;SDS011;64406;50.024;14.492;2022-11-04T00:16:29;22.00;;;14.07;;
75787;SDS011;64406;50.024;14.492;2022-11-04T00:21:39;28.48;;;13.75;;
75787;SDS011;64406;50.024;14.492;2022-11-04T00:24:23;27.08;;;14.18;;
75787;SDS011;64406;50.024;14.492;2022-11-04T00:27:14;26.92;;;13.63;;
75787;SDS011;64406;50.024;14.492;2022-11-04T00:30:00;25.73;;;14.52;;
75787;SDS011;64406;50.024;14.492;2022-11-04T00:32:26;32.05;;;15.07;;
75787;SDS011;64406;50.024;14.492;2022-11-04T00:37:37;23.70;;;13.73;;
75787;SDS011;64406;50.024;14.492;2022-11-04T00:40:04;30.35;;;15.07;;
75787;SDS011;64406;50.024;14.492;2022-11-04T00:42:31;24.42;;;14.73;;
75787;SDS011;64406;50.024;14.492;2022-11-04T00:44:57;24.42;;;14.30;;
75787;SDS011;64406;50.024;14.492;2022-11-04T00:47:23;24.45;;;14.88;;
75787;SDS011;64406;50.024;14.492;2022-11-04T00:49:48;28.38;;;15.07;;
75787;SDS011;64406;50.024;14.492;2022-11-04T00:52:14;25.90;;;14.35;;
75787;SDS011;64406;50.024;14.492;2022-11-04T00:54:40;26.33;;;14.20;;
75787;SDS011;64406;50.024;14.492;2022-11-04T00:57:08;29.17;;;15.27;;
75787;SDS011;64406;50.024;14.492;2022-11-04T00:59:34;31.23;;;16.90;;
75787;SDS011;64406;50.024;14.492;2022-11-04T01:01:59;27.50;;;15.32;;
75787;SDS011;64406;50.024;14.492;2022-11-04T01:04:25;31.15;;;16.08;;
75787;SDS011;64406;50.024;14.492;2022-11-04T01:06:51;28.05;;;14.77;;
75787;SDS011;64406;50.024;14.492;2022-11-04T01:09:17;27.90;;;15.10;;
75787;SDS011;64406;50.024;14.492;2022-11-04T01:11:42;24.63;;;14.20;;
75787;SDS011;64406;50.024;14.492;2022-11-04T01:14:08;23.75;;;13.43;;
75787;SDS011;64406;50.024;14.492;2022-11-04T01:16:34;27.00;;;14.60;;
75787;SDS011;64406;50.024;14.492;2022-11-04T01:19:00;28.75;;;15.20;;
75787;SDS011;64406;50.024;14.492;2022-11-04T01:21:26;30.25;;;16.60;;
75787;SDS011;64406;50.024;14.492;2022-11-04T01:23:52;29.00;;;15.30;;
75787;SDS011;64406;50.024;14.492;2022-11-04T01:26:19;28.13;;;14.50;;
75787;SDS011;64406;50.024;14.492;2022-11-04T01:28:46;30.55;;;15.30;;
75787;SDS011;64406;50.024;14.492;2022-11-04T01:31:30;28.98;;;15.13;;
75787;SDS011;64406;50.024;14.492;2022-11-04T01:33:57;27.35;;;14.75;;
75787;SDS011;64406;50.024;14.492;2022-11-04T01:36:23;26.90;;;15.13;;
75787;SDS011;64406;50.024;14.492;2022-11-04T01:38:50;25.67;;;14.80;;
75787;SDS011;64406;50.024;14.492;2022-11-04T01:41:17;26.00;;;14.45;;
75787;SDS011;64406;50.024;14.492;2022-11-04T01:43:49;29.50;;;15.20;;
75787;SDS011;64406;50.024;14.492;2022-11-04T01:46:30;28.30;;;14.73;;
75787;SDS011;64406;50.024;14.492;2022-11-04T01:48:58;25.63;;;13.77;;
75787;SDS011;64406;50.024;14.492;2022-11-04T01:51:28;26.42;;;14.82;;
75787;SDS011;64406;50.024;14.492;2022-11-04T01:54:00;27.10;;;14.23;;
75787;SDS011;64406;50.024;14.492;2022-11-04T01:56:29;28.13;;;15.13;;
75787;SDS011;64406;50.024;14.492;2022-11-04T01:58:56;24.90;;;14.13;;
75787;SDS011;64406;50.024;14.492;2022-11-04T02:01:27;26.95;;;15.52;;
75787;SDS011;64406;50.024;14.492;2022-11-04T02:03:55;30.35;;;14.70;;
75787;SDS011;64406;50.024;14.492;2022-11-04T02:06:48;25.20;;;14.30;;
75787;SDS011;64406;50.024;14.492;2022-11-04T02:09:16;21.40;;;12.80;;
75787;SDS011;64406;50.024;14.492;2022-11-04T02:11:43;25.95;;;14.18;;
75787;SDS011;64406;50.024;14.492;2022-11-04T02:16:54;21.48;;;12.85;;
75787;SDS011;64406;50.024;14.492;2022-11-04T02:28:06;27.25;;;13.23;;
75787;SDS011;64406;50.024;14.492;2022-11-04T02:30:52;23.77;;;12.95;;
75787;SDS011;64406;50.024;14.492;2022-11-04T02:36:29;26.20;;;14.07;;
75787;SDS011;64406;50.024;14.492;2022-11-04T02:39:04;27.48;;;13.93;;
75787;SDS011;64406;50.024;14.492;2022-11-04T02:44:35;30.20;;;13.93;;
75787;SDS011;64406;50.024;14.492;2022-11-04T02:47:17;27.80;;;13.88;;
75787;SDS011;64406;50.024;14.492;2022-11-04T02:49:50;27.67;;;13.60;;
75787;SDS011;64406;50.024;14.492;2022-11-04T02:52:34;24.00;;;13.90;;
75787;SDS011;64406;50.024;14.492;2022-11-04T02:55:19;25.27;;;13.98;;
75787;SDS011;64406;50.024;14.492;2022-11-04T02:57:49;29.17;;;15.77;;
75787;SDS011;64406;50.024;14.492;2022-11-04T03:00:18;25.02;;;13.55;;
75787;SDS011;64406;50.024;14.492;2022-11-04T03:02:49;27.10;;;13.80;;
75787;SDS011;64406;50.024;14.492;2022-11-04T03:05:25;26.75;;;12.82;;
75787;SDS011;64406;50.024;14.492;2022-11-04T03:07:55;21.42;;;12.48;;
75787;SDS011;64406;50.024;14.492;2022-11-04T03:10:32;23.63;;;13.57;;
75787;SDS011;64406;50.024;14.492;2022-11-04T03:13:14;25.58;;;14.13;;
75787;SDS011;64406;50.024;14.492;2022-11-04T03:15:46;23.13;;;12.45;;
75787;SDS011;64406;50.024;14.492;2022-11-04T03:20:55;24.23;;;11.93;;
75787;SDS011;64406;50.024;14.492;2022-11-04T03:23:24;21.52;;;12.57;;
75787;SDS011;64406;50.024;14.492;2022-11-04T03:25:50;22.73;;;12.73;;
75787;SDS011;64406;50.024;14.492;2022-11-04T03:31:42;25.90;;;13.30;;
75787;SDS011;64406;50.024;14.492;2022-11-04T03:34:12;23.42;;;13.50;;
75787;SDS011;64406;50.024;14.492;2022-11-04T03:36:37;27.77;;;15.02;;
75787;SDS011;64406;50.024;14.492;2022-11-04T03:39:03;28.20;;;13.95;;
75787;SDS011;64406;50.024;14.492;2022-11-04T03:41:31;29.35;;;15.23;;
75787;SDS011;64406;50.024;14.492;2022-11-04T03:44:01;30.38;;;15.43;;
75787;SDS011;64406;50.024;14.492;2022-11-04T03:46:27;24.52;;;14.43;;
75787;SDS011;64406;50.024;14.492;2022-11-04T03:48:53;30.05;;;15.85;;
75787;SDS011;64406;50.024;14.492;2022-11-04T03:51:19;30.63;;;15.45;;
75787;SDS011;64406;50.024;14.492;2022-11-04T03:53:45;29.17;;;16.05;;
75787;SDS011;64406;50.024;14.492;2022-11-04T03:59:31;33.80;;;17.73;;
75787;SDS011;64406;50.024;14.492;2022-11-04T04:02:20;30.80;;;15.43;;
75787;SDS011;64406;50.024;14.492;2022-11-04T04:04:55;32.95;;;16.83;;
75787;SDS011;64406;50.024;14.492;2022-11-04T04:07:36;31.50;;;16.63;;
75787;SDS011;64406;50.024;14.492;2022-11-04T04:10:28;33.15;;;17.02;;
75787;SDS011;64406;50.024;14.492;2022-11-04T04:13:13;32.38;;;15.95;;
75787;SDS011;64406;50.024;14.492;2022-11-04T04:15:51;27.20;;;15.45;;
75787;SDS011;64406;50.024;14.492;2022-11-04T04:18:29;25.45;;;15.02;;
75787;SDS011;64406;50.024;14.492;2022-11-04T04:21:00;25.95;;;15.02;;
75787;SDS011;64406;50.024;14.492;2022-11-04T04:23:29;25.50;;;15.00;;
75787;SDS011;64406;50.024;14.492;2022-11-04T04:26:18;26.13;;;14.25;;
75787;SDS011;64406;50.024;14.492;2022-11-04T04:29:05;25.25;;;14.80;;
75787;SDS011;64406;50.024;14.492;2022-11-04T04:31:32;31.35;;;15.07;;
75787;SDS011;64406;50.024;14.492;2022-11-04T04:34:20;26.42;;;15.20;;
75787;SDS011;64406;50.024;14.492;2022-11-04T04:36:56;28.25;;;15.60;;
75787;SDS011;64406;50.024;14.492;2022-11-04T04:39:31;26.30;;;15.02;;
75787;SDS011;64406;50.024;14.492;2022-11-04T04:42:19;27.52;;;15.52;;
75787;SDS011;64406;50.024;14.492;2022-11-04T04:47:32;24.80;;;14.70;;
75787;SDS011;64406;50.024;14.492;2022-11-04T04:50:02;28.77;;;16.08;;
75787;SDS011;64406;50.024;14.492;2022-11-04T04:52:30;32.40;;;15.75;;
75787;SDS011;64406;50.024;14.492;2022-11-04T04:54:57;30.45;;;17.70;;
75787;SDS011;64406;50.024;14.492;2022-11-04T04:57:23;30.60;;;16.63;;
75787;SDS011;64406;50.024;14.492;2022-11-04T04:59:49;24.70;;;15.82;;
75787;SDS011;64406;50.024;14.492;2022-11-04T05:02:14;31.15;;;16.77;;
75787;SDS011;64406;50.024;14.492;2022-11-04T05:04:40;31.38;;;17.55;;
75787;SDS011;64406;50.024;14.492;2022-11-04T05:07:05;27.00;;;16.15;;
75787;SDS011;64406;50.024;14.492;2022-11-04T05:09:32;32.45;;;17.20;;
75787;SDS011;64406;50.024;14.492;2022-11-04T05:11:57;27.83;;;15.35;;
75787;SDS011;64406;50.024;14.492;2022-11-04T05:14:23;32.33;;;16.08;;
75787;SDS011;64406;50.024;14.492;2022-11-04T05:16:49;29.35;;;16.25;;
75787;SDS011;64406;50.024;14.492;2022-11-04T05:19:14;26.52;;;15.73;;
75787;SDS011;64406;50.024;14.492;2022-11-04T05:21:40;29.08;;;16.10;;
75787;SDS011;64406;50.024;14.492;2022-11-04T05:24:05;25.80;;;16.35;;
75787;SDS011;64406;50.024;14.492;2022-11-04T05:26:31;26.35;;;15.80;;
75787;SDS011;64406;50.024;14.492;2022-11-04T05:28:57;33.30;;;17.48;;
75787;SDS011;64406;50.024;14.492;2022-11-04T05:31:23;28.70;;;15.38;;
75787;SDS011;64406;50.024;14.492;2022-11-04T05:33:48;33.85;;;16.70;;
75787;SDS011;64406;50.024;14.492;2022-11-04T05:36:14;26.15;;;15.30;;
75787;SDS011;64406;50.024;14.492;2022-11-04T05:38:41;27.30;;;15.57;;
75787;SDS011;64406;50.024;14.492;2022-11-04T05:41:08;29.92;;;16.73;;
75787;SDS011;64406;50.024;14.492;2022-11-04T05:43:35;23.20;;;14.23;;
75787;SDS011;64406;50.024;14.492;2022-11-04T05:46:01;24.63;;;15.20;;
75787;SDS011;64406;50.024;14.492;2022-11-04T05:48:27;25.95;;;14.73;;
75787;SDS011;64406;50.024;14.492;2022-11-04T05:50:54;26.00;;;14.43;;
75787;SDS011;64406;50.024;14.492;2022-11-04T05:53:20;30.00;;;16.15;;
75787;SDS011;64406;50.024;14.492;2022-11-04T05:55:45;30.35;;;16.45;;
75787;SDS011;64406;50.024;14.492;2022-11-04T05:58:11;32.05;;;17.23;;
75787;SDS011;64406;50.024;14.492;2022-11-04T06:00:37;33.13;;;17.52;;
75787;SDS011;64406;50.024;14.492;2022-11-04T06:03:02;31.67;;;16.42;;
75787;SDS011;64406;50.024;14.492;2022-11-04T06:05:28;27.33;;;16.27;;
75787;SDS011;64406;50.024;14.492;2022-11-04T06:07:54;25.35;;;15.52;;
75787;SDS011;64406;50.024;14.492;2022-11-04T06:10:21;32.28;;;16.15;;
75787;SDS011;64406;50.024;14.492;2022-11-04T06:12:47;29.33;;;15.57;;
75787;SDS011;64406;50.024;14.492;2022-11-04T06:15:13;31.75;;;16.52;;
75787;SDS011;64406;50.024;14.492;2022-11-04T06:17:39;34.13;;;17.73;;
75787;SDS011;64406;50.024;14.492;2022-11-04T06:20:05;31.60;;;16.80;;
75787;SDS011;64406;50.024;14.492;2022-11-04T06:22:31;28.48;;;16.30;;
75787;SDS011;64406;50.024;14.492;2022-11-04T06:24:56;30.55;;;16.45;;
75787;SDS011;64406;50.024;14.492;2022-11-04T06:27:22;30.58;;;14.93;;
75787;SDS011;64406;50.024;14.492;2022-11-04T06:29:48;26.70;;;15.75;;
75787;SDS011;64406;50.024;14.492;2022-11-04T06:32:15;30.67;;;17.42;;
75787;SDS011;64406;50.024;14.492;2022-11-04T06:34:42;27.60;;;16.50;;
75787;SDS011;64406;50.024;14.492;2022-11-04T06:37:08;27.83;;;14.98;;
75787;SDS011;64406;50.024;14.492;2022-11-04T06:39:34;35.15;;;16.27;;
75787;SDS011;64406;50.024;14.492;2022-11-04T06:42:01;26.27;;;16.90;;
75787;SDS011;64406;50.024;14.492;2022-11-04T06:44:27;26.40;;;14.85;;
75787;SDS011;64406;50.024;14.492;2022-11-04T06:46:52;26.10;;;15.48;;
75787;SDS011;64406;50.024;14.492;2022-11-04T06:49:19;25.02;;;15.45;;
75787;SDS011;64406;50.024;14.492;2022-11-04T06:51:47;30.35;;;16.15;;
75787;SDS011;64406;50.024;14.492;2022-11-04T06:54:15;30.05;;;16.58;;
75787;SDS011;64406;50.024;14.492;2022-11-04T06:56:41;29.88;;;16.30;;
75787;SDS011;64406;50.024;14.492;2022-11-04T06:59:08;30.90;;;16.73;;
75787;SDS011;64406;50.024;14.492;2022-11-04T07:01:38;31.58;;;16.48;;
75787;SDS011;64406;50.024;14.492;2022-11-04T07:04:04;29.88;;;16.63;;
75787;SDS011;64406;50.024;14.492;2022-11-04T07:06:29;32.33;;;17.38;;
75787;SDS011;64406;50.024;14.492;2022-11-04T07:08:56;28.20;;;16.27;;
75787;SDS011;64406;50.024;14.492;2022-11-04T07:11:23;26.88;;;15.93;;
75787;SDS011;64406;50.024;14.492;2022-11-04T07:13:50;31.33;;;16.88;;
75787;SDS011;64406;50.024;14.492;2022-11-04T07:16:16;30.83;;;17.40;;
75787;SDS011;64406;50.024;14.492;2022-11-04T07:18:42;27.77;;;16.17;;
75787;SDS011;64406;50.024;14.492;2022-11-04T07:21:08;29.52;;;16.23;;
75787;SDS011;64406;50.024;14.492;2022-11-04T07:23:35;27.17;;;16.55;;
75787;SDS011;64406;50.024;14.492;2022-11-04T07:26:01;27.08;;;14.55;;
75787;SDS011;64406;50.024;14.492;2022-11-04T07:28:29;29.02;;;16.35;;
75787;SDS011;64406;50.024;14.492;2022-11-04T07:30:55;33.45;;;16.23;;
75787;SDS011;64406;50.024;14.492;2022-11-04T07:33:22;30.48;;;16.50;;
75787;SDS011;64406;50.024;14.492;2022-11-04T07:35:48;28.70;;;16.20;;
75787;SDS011;64406;50.024;14.492;2022-11-04T07:38:14;28.63;;;16.60;;
75787;SDS011;64406;50.024;14.492;2022-11-04T07:40:39;30.10;;;16.83;;
75787;SDS011;64406;50.024;14.492;2022-11-04T07:43:05;36.30;;;16.52;;
75787;SDS011;64406;50.024;14.492;2022-11-04T07:45:31;27.50;;;16.05;;
75787;SDS011;64406;50.024;14.492;2022-11-04T07:47:57;27.67;;;15.07;;
75787;SDS011;64406;50.024;14.492;2022-11-04T07:50:22;27.55;;;15.75;;
75787;SDS011;64406;50.024;14.492;2022-11-04T07:52:48;32.28;;;16.33;;
75787;SDS011;64406;50.024;14.492;2022-11-04T07:55:15;29.00;;;16.42;;
75787;SDS011;64406;50.024;14.492;2022-11-04T07:57:46;27.05;;;15.10;;
75787;SDS011;64406;50.024;14.492;2022-11-04T08:00:13;24.65;;;15.10;;
75787;SDS011;64406;50.024;14.492;2022-11-04T08:02:41;25.02;;;15.05;;
75787;SDS011;64406;50.024;14.492;2022-11-04T08:05:11;31.92;;;17.00;;
75787;SDS011;64406;50.024;14.492;2022-11-04T08:07:38;29.17;;;16.00;;
75787;SDS011;64406;50.024;14.492;2022-11-04T08:10:04;30.67;;;16.35;;
75787;SDS011;64406;50.024;14.492;2022-11-04T08:12:30;25.63;;;15.82;;
75787;SDS011;64406;50.024;14.492;2022-11-04T08:14:57;30.45;;;16.63;;
75787;SDS011;64406;50.024;14.492;2022-11-04T08:17:23;25.65;;;14.95;;
75787;SDS011;64406;50.024;14.492;2022-11-04T08:19:49;26.60;;;15.25;;
75787;SDS011;64406;50.024;14.492;2022-11-04T08:22:15;27.92;;;15.82;;
75787;SDS011;64406;50.024;14.492;2022-11-04T08:24:40;24.58;;;15.55;;
75787;SDS011;64406;50.024;14.492;2022-11-04T08:27:06;27.98;;;14.68;;
75787;SDS011;64406;50.024;14.492;2022-11-04T08:29:32;28.90;;;16.02;;
75787;SDS011;64406;50.024;14.492;2022-11-04T08:31:59;31.15;;;16.30;;
75787;SDS011;64406;50.024;14.492;2022-11-04T08:34:24;29.35;;;15.90;;
75787;SDS011;64406;50.024;14.492;2022-11-04T08:36:50;24.35;;;15.00;;
75787;SDS011;64406;50.024;14.492;2022-11-04T08:39:17;29.20;;;17.10;;
75787;SDS011;64406;50.024;14.492;2022-11-04T08:41:43;34.08;;;17.08;;
75787;SDS011;64406;50.024;14.492;2022-11-04T08:44:11;29.98;;;16.50;;
75787;SDS011;64406;50.024;14.492;2022-11-04T08:46:38;37.45;;;18.60;;
75787;SDS011;64406;50.024;14.492;2022-11-04T08:49:05;36.65;;;18.85;;
75787;SDS011;64406;50.024;14.492;2022-11-04T08:51:31;36.47;;;17.70;;
75787;SDS011;64406;50.024;14.492;2022-11-04T08:53:58;36.00;;;17.05;;
75787;SDS011;64406;50.024;14.492;2022-11-04T08:56:26;32.63;;;17.35;;
75787;SDS011;64406;50.024;14.492;2022-11-04T08:58:57;31.90;;;17.27;;
75787;SDS011;64406;50.024;14.492;2022-11-04T09:01:24;31.13;;;16.67;;
75787;SDS011;64406;50.024;14.492;2022-11-04T09:03:50;32.25;;;17.23;;
75787;SDS011;64406;50.024;14.492;2022-11-04T09:06:18;39.70;;;18.17;;
75787;SDS011;64406;50.024;14.492;2022-11-04T09:08:46;36.80;;;18.85;;
75787;SDS011;64406;50.024;14.492;2022-11-04T09:11:13;35.88;;;18.02;;
75787;SDS011;64406;50.024;14.492;2022-11-04T09:13:39;31.08;;;17.25;;
75787;SDS011;64406;50.024;14.492;2022-11-04T09:16:05;34.63;;;18.23;;
75787;SDS011;64406;50.024;14.492;2022-11-04T09:18:32;33.63;;;17.55;;
75787;SDS011;64406;50.024;14.492;2022-11-04T09:21:01;32.75;;;17.13;;
75787;SDS011;64406;50.024;14.492;2022-11-04T09:23:29;39.08;;;17.08;;
75787;SDS011;64406;50.024;14.492;2022-11-04T09:25:55;32.78;;;16.98;;
75787;SDS011;64406;50.024;14.492;2022-11-04T09:28:23;35.22;;;17.52;;
75787;SDS011;64406;50.024;14.492;2022-11-04T09:30:49;37.38;;;18.00;;
75787;SDS011;64406;50.024;14.492;2022-11-04T09:33:15;35.25;;;18.23;;
75787;SDS011;64406;50.024;14.492;2022-11-04T09:35:41;37.28;;;19.15;;
75787;SDS011;64406;50.024;14.492;2022-11-04T09:38:06;37.17;;;17.95;;
75787;SDS011;64406;50.024;14.492;2022-11-04T09:40:33;29.75;;;15.55;;
75787;SDS011;64406;50.024;14.492;2022-11-04T09:45:44;32.80;;;17.80;;
75787;SDS011;64406;50.024;14.492;2022-11-04T09:48:53;28.40;;;14.90;;
75787;SDS011;64406;50.024;14.492;2022-11-04T09:51:05;34.55;;;17.48;;
75787;SDS011;64406;50.024;14.492;2022-11-04T09:53:35;31.67;;;16.88;;
75787;SDS011;64406;50.024;14.492;2022-11-04T09:56:15;37.92;;;18.52;;
75787;SDS011;64406;50.024;14.492;2022-11-04T09:59:02;31.05;;;16.73;;
75787;SDS011;64406;50.024;14.492;2022-11-04T10:01:31;38.80;;;17.85;;
75787;SDS011;64406;50.024;14.492;2022-11-04T10:09:21;39.95;;;21.15;;
75787;SDS011;64406;50.024;14.492;2022-11-04T10:11:59;41.25;;;19.58;;
75787;SDS011;64406;50.024;14.492;2022-11-04T10:22:25;42.45;;;20.20;;
75787;SDS011;64406;50.024;14.492;2022-11-04T10:27:22;36.83;;;19.52;;
75787;SDS011;64406;50.024;14.492;2022-11-04T10:32:54;37.00;;;16.98;;
75787;SDS011;64406;50.024;14.492;2022-11-04T10:35:33;31.88;;;15.50;;
75787;SDS011;64406;50.024;14.492;2022-11-04T10:40:38;36.42;;;17.80;;
75787;SDS011;64406;50.024;14.492;2022-11-04T10:43:06;31.83;;;16.38;;
75787;SDS011;64406;50.024;14.492;2022-11-04T10:48:48;30.35;;;15.48;;
75787;SDS011;64406;50.024;14.492;2022-11-04T10:51:19;33.28;;;16.80;;
75787;SDS011;64406;50.024;14.492;2022-11-04T10:53:47;36.22;;;17.90;;
75787;SDS011;64406;50.024;14.492;2022-11-04T10:56:24;29.58;;;16.55;;
75787;SDS011;64406;50.024;14.492;2022-11-04T10:59:14;31.08;;;16.38;;
75787;SDS011;64406;50.024;14.492;2022-11-04T11:01:50;33.65;;;17.33;;
75787;SDS011;64406;50.024;14.492;2022-11-04T11:04:25;37.10;;;16.75;;
75787;SDS011;64406;50.024;14.492;2022-11-04T11:06:53;26.88;;;14.55;;
75787;SDS011;64406;50.024;14.492;2022-11-04T11:09:28;39.53;;;16.33;;
75787;SDS011;64406;50.024;14.492;2022-11-04T11:11:57;31.85;;;16.92;;
75787;SDS011;64406;50.024;14.492;2022-11-04T11:14:33;39.22;;;17.17;;
75787;SDS011;64406;50.024;14.492;2022-11-04T11:22:42;34.10;;;16.88;;
75787;SDS011;64406;50.024;14.492;2022-11-04T11:36:01;31.98;;;16.42;;
75787;SDS011;64406;50.024;14.492;2022-11-04T11:38:56;33.60;;;15.32;;
75787;SDS011;64406;50.024;14.492;2022-11-04T11:44:17;28.27;;;15.30;;
75787;SDS011;64406;50.024;14.492;2022-11-04T11:49:43;31.27;;;15.75;;
75787;SDS011;64406;50.024;14.492;2022-11-04T11:55:03;28.17;;;14.50;;
75787;SDS011;64406;50.024;14.492;2022-11-04T12:00:09;29.02;;;12.75;;
75787;SDS011;64406;50.024;14.492;2022-11-04T12:02:49;30.55;;;14.25;;
75787;SDS011;64406;50.024;14.492;2022-11-04T12:05:26;26.77;;;13.50;;
75787;SDS011;64406;50.024;14.492;2022-11-04T12:10:56;25.15;;;12.85;;
75787;SDS011;64406;50.024;14.492;2022-11-04T12:13:28;20.35;;;11.20;;
75787;SDS011;64406;50.024;14.492;2022-11-04T12:16:12;22.67;;;11.48;;
75787;SDS011;64406;50.024;14.492;2022-11-04T12:30:19;14.02;;;7.10;;
75787;SDS011;64406;50.024;14.492;2022-11-04T12:38:40;11.25;;;6.10;;
75787;SDS011;64406;50.024;14.492;2022-11-04T12:46:43;12.55;;;7.00;;
75787;SDS011;64406;50.024;14.492;2022-11-04T12:52:25;12.30;;;7.05;;
75787;SDS011;64406;50.024;14.492;2022-11-04T12:57:49;17.50;;;8.00;;
75787;SDS011;64406;50.024;14.492;2022-11-04T13:00:44;11.32;;;6.20;;
75787;SDS011;64406;50.024;14.492;2022-11-04T13:03:29;10.35;;;5.85;;
75787;SDS011;64406;50.024;14.492;2022-11-04T13:13:52;10.50;;;5.30;;
75787;SDS011;64406;50.024;14.492;2022-11-04T13:16:30;14.52;;;6.32;;
75787;SDS011;64406;50.024;14.492;2022-11-04T13:19:04;9.45;;;6.00;;
75787;SDS011;64406;50.024;14.492;2022-11-04T13:21:36;9.02;;;5.00;;
75787;SDS011;64406;50.024;14.492;2022-11-04T13:24:03;9.63;;;5.47;;
75787;SDS011;64406;50.024;14.492;2022-11-04T13:26:37;10.00;;;5.57;;
75787;SDS011;64406;50.024;14.492;2022-11-04T13:29:04;9.85;;;5.75;;
75787;SDS011;64406;50.024;14.492;2022-11-04T13:31:47;11.02;;;5.57;;
75787;SDS011;64406;50.024;14.492;2022-11-04T13:37:07;11.85;;;5.50;;
75787;SDS011;64406;50.024;14.492;2022-11-04T13:39:50;9.55;;;4.25;;
75787;SDS011;64406;50.024;14.492;2022-11-04T13:45:12;10.80;;;5.20;;
75787;SDS011;64406;50.024;14.492;2022-11-04T13:47:51;9.95;;;5.45;;
75787;SDS011;64406;50.024;14.492;2022-11-04T13:50:38;9.60;;;5.55;;
75787;SDS011;64406;50.024;14.492;2022-11-04T13:53:06;9.88;;;5.35;;
75787;SDS011;64406;50.024;14.492;2022-11-04T13:55:34;10.50;;;5.88;;
75787;SDS011;64406;50.024;14.492;2022-11-04T13:58:01;10.75;;;6.57;;
75787;SDS011;64406;50.024;14.492;2022-11-04T14:00:30;11.15;;;6.07;;
75787;SDS011;64406;50.024;14.492;2022-11-04T14:02:57;11.55;;;6.32;;
75787;SDS011;64406;50.024;14.492;2022-11-04T14:18:33;11.90;;;6.68;;
75787;SDS011;64406;50.024;14.492;2022-11-04T14:21:05;11.02;;;6.63;;
75787;SDS011;64406;50.024;14.492;2022-11-04T14:23:50;9.90;;;6.15;;
75787;SDS011;64406;50.024;14.492;2022-11-04T14:26:27;9.55;;;5.85;;
75787;SDS011;64406;50.024;14.492;2022-11-04T14:31:40;7.90;;;5.03;;
75787;SDS011;64406;50.024;14.492;2022-11-04T14:36:57;7.03;;;3.92;;
75787;SDS011;64406;50.024;14.492;2022-11-04T14:39:42;7.00;;;4.25;;
75787;SDS011;64406;50.024;14.492;2022-11-04T14:42:12;8.68;;;4.70;;
75787;SDS011;64406;50.024;14.492;2022-11-04T14:47:21;8.55;;;4.00;;
75787;SDS011;64406;50.024;14.492;2022-11-04T14:49:59;9.85;;;5.28;;
75787;SDS011;64406;50.024;14.492;2022-11-04T14:52:27;7.05;;;4.05;;
75787;SDS011;64406;50.024;14.492;2022-11-04T14:55:02;7.18;;;4.38;;
75787;SDS011;64406;50.024;14.492;2022-11-04T14:57:39;8.20;;;4.90;;
75787;SDS011;64406;50.024;14.492;2022-11-04T15:02:47;5.78;;;4.15;;
75787;SDS011;64406;50.024;14.492;2022-11-04T15:05:24;8.98;;;4.63;;
75787;SDS011;64406;50.024;14.492;2022-11-04T15:07:53;11.13;;;5.45;;
75787;SDS011;64406;50.024;14.492;2022-11-04T15:10:23;8.75;;;4.82;;
75787;SDS011;64406;50.024;14.492;2022-11-04T15:12:51;7.65;;;4.60;;
75787;SDS011;64406;50.024;14.492;2022-11-04T15:15:25;9.40;;;5.97;;
75787;SDS011;64406;50.024;14.492;2022-11-04T15:17:58;8.57;;;5.00;;
75787;SDS011;64406;50.024;14.492;2022-11-04T15:20:26;12.55;;;5.70;;
75787;SDS011;64406;50.024;14.492;2022-11-04T15:22:57;13.23;;;6.53;;
75787;SDS011;64406;50.024;14.492;2022-11-04T15:25:26;9.70;;;5.95;;
75787;SDS011;64406;50.024;14.492;2022-11-04T15:27:51;9.32;;;5.65;;
75787;SDS011;64406;50.024;14.492;2022-11-04T15:30:26;11.90;;;7.40;;
75787;SDS011;64406;50.024;14.492;2022-11-04T15:32:58;11.23;;;6.60;;
75787;SDS011;64406;50.024;14.492;2022-11-04T15:35:31;15.07;;;6.32;;
75787;SDS011;64406;50.024;14.492;2022-11-04T15:37:58;15.82;;;7.13;;
75787;SDS011;64406;50.024;14.492;2022-11-04T15:40:26;10.77;;;6.72;;
75787;SDS011;64406;50.024;14.492;2022-11-04T15:42:54;14.60;;;6.75;;
75787;SDS011;64406;50.024;14.492;2022-11-04T15:45:25;12.15;;;6.40;;
75787;SDS011;64406;50.024;14.492;2022-11-04T15:53:46;13.02;;;6.35;;
75787;SDS011;64406;50.024;14.492;2022-11-04T15:56:15;7.93;;;5.00;;
75787;SDS011;64406;50.024;14.492;2022-11-04T15:58:45;8.98;;;5.32;;
75787;SDS011;64406;50.024;14.492;2022-11-04T16:01:14;9.13;;;5.13;;
75787;SDS011;64406;50.024;14.492;2022-11-04T16:03:54;11.43;;;5.63;;
75787;SDS011;64406;50.024;14.492;2022-11-04T16:06:32;13.07;;;5.78;;
75787;SDS011;64406;50.024;14.492;2022-11-04T16:09:00;10.07;;;5.20;;
75787;SDS011;64406;50.024;14.492;2022-11-04T16:11:28;6.97;;;5.03;;
75787;SDS011;64406;50.024;14.492;2022-11-04T16:13:57;10.48;;;5.10;;
75787;SDS011;64406;50.024;14.492;2022-11-04T16:16:51;9.93;;;4.95;;
75787;SDS011;64406;50.024;14.492;2022-11-04T16:19:19;11.75;;;5.40;;
75787;SDS011;64406;50.024;14.492;2022-11-04T16:21:46;8.90;;;5.47;;
75787;SDS011;64406;50.024;14.492;2022-11-04T16:24:22;8.90;;;5.25;;
75787;SDS011;64406;50.024;14.492;2022-11-04T16:26:53;9.45;;;5.45;;
75787;SDS011;64406;50.024;14.492;2022-11-04T16:29:20;7.95;;;5.72;;
75787;SDS011;64406;50.024;14.492;2022-11-04T16:34:42;8.60;;;4.55;;
75787;SDS011;64406;50.024;14.492;2022-11-04T16:37:09;7.90;;;4.80;;
75787;SDS011;64406;50.024;14.492;2022-11-04T16:39:34;8.30;;;4.55;;
75787;SDS011;64406;50.024;14.492;2022-11-04T16:42:00;6.68;;;4.15;;
75787;SDS011;64406;50.024;14.492;2022-11-04T16:44:26;6.75;;;3.97;;
75787;SDS011;64406;50.024;14.492;2022-11-04T16:46:52;7.32;;;4.05;;
75787;SDS011;64406;50.024;14.492;2022-11-04T16:49:18;6.45;;;4.18;;
75787;SDS011;64406;50.024;14.492;2022-11-04T16:51:47;4.60;;;3.58;;
75787;SDS011;64406;50.024;14.492;2022-11-04T16:54:15;4.60;;;3.28;;
75787;SDS011;64406;50.024;14.492;2022-11-04T16:56:41;4.32;;;3.15;;
75787;SDS011;64406;50.024;14.492;2022-11-04T16:59:08;4.38;;;3.08;;
75787;SDS011;64406;50.024;14.492;2022-11-04T17:01:36;4.22;;;2.63;;
75787;SDS011;64406;50.024;14.492;2022-11-04T17:04:04;4.75;;;3.30;;
75787;SDS011;64406;50.024;14.492;2022-11-04T17:06:31;5.03;;;3.47;;
75787;SDS011;64406;50.024;14.492;2022-11-04T17:08:57;5.97;;;3.17;;
75787;SDS011;64406;50.024;14.492;2022-11-04T17:11:23;4.72;;;3.40;;
75787;SDS011;64406;50.024;14.492;2022-11-04T17:13:48;5.38;;;2.85;;
75787;SDS011;64406;50.024;14.492;2022-11-04T17:16:14;4.88;;;2.80;;
75787;SDS011;64406;50.024;14.492;2022-11-04T17:18:39;4.90;;;2.88;;